Aérodrome :
LOGIN :

S'inscrire | Disclaimer

   EN    FR    IT 

 










Légende :    VFR   VFR Marginal   IFR   IFR Intensif   IFR Très Intensif
Visi : 
Plafond : 
>= 8 km
>= 3000ft
5 à 8 km
1000 à 3000 ft
1500m à 5 km
500 à 1000 ft
800 à 1500m
200 à 500 ft
< 800m
< 200 ft
Symboles :   Orages  Brouillard  Fortes neiges  Fortes précipitations  Vent > 20 kt
SIGMETs :   Divers  Orages  Givrage  Turbulence  Onde Orograph.  Cendres Volcan.






- Altitude de l'aérodrome : 26 ft
- Code IATA : SYY


EGPO - Stornoway

DERNIER METAR :
  • 150250Z AUTO 33007KT 9999 FEW019/// SCT025/// BKN030/// 03/02 Q1020 RERA

METARs EXPIRÉS :
  • 150220Z AUTO 34006KT 9999 FEW020/// SCT025/// 03/02 Q1020
  • 150150Z AUTO 34009KT 9999 FEW019/// 03/01 Q1020
  • 150120Z AUTO 35009KT 9999 NCD 04/01 Q1019
  • 150050Z AUTO 34006KT 9999 FEW038/// BKN045/// 02/00 Q1020
  • 150020Z AUTO 34006KT 9999 NCD 03/M00 Q1019

TAF TAF EGPO
Valide du 15 à 03h jusqu'au 15 à 12h UTC


150155Z 1503/1512 36012KT 9999 SCT020
TEMPO 1503/1512 6000 SHRA BKN014
PROB30
TEMPO 1503/1510 02020G30KT
ATIS : +44 1851 707 444



MET'MAP, la Météo Aéronautique d'un coup d'oeil ! - Copyright ORBIFLY Décembre 2007 - Disclaimer

ORBIFLY MET'MAP TEAM :

Programmation & Développement : Alexandra Zaïnal
Conception & Développement : Baudouin d'Aumeries
Co-Programmation & Développement : Marc-Olivier Méhu
Soutien technique & logistique : Manuel Goepfert

Contact : metmap@orbifly.com




SOURCES & CREDITS :

   NOAA